Terminal Aerodrome Forecast
Issued by NWS

Home | Current Version | Previous Version | Text Only | Print | Product List | Glossary On
Versions: 1 2 3 4 5 6 7 8 9 10 11 12 13 14 15
000
FTUS46 KOTX 051143
TAFPUW
TAF
KPUW 051143Z 0512/0612 00000KT P6SM VCSH SCT012 BKN080 OVC120
      TEMPO 0512/0515 BKN012
     FM051800 24005KT P6SM VCSH SCT080 BKN100
     FM052300 30009KT P6SM -SHRA VCTS SCT070CB BKN100
     FM060300 33008KT P6SM VCSH SCT070 BKN100
     FM060800 04003KT P6SM VCSH BKN070=

USA.gov is the U.S. government's official web portal to all federal, state and local government web resources and services.